sensor_id;sensor_type;location;lat;lon;timestamp;temperature;humidity
19920;DHT22;10122;50.074;19.920;2023-07-29T00:01:51;18.70;99.90
19920;DHT22;10122;50.074;19.920;2023-07-29T00:04:19;18.70;99.90
19920;DHT22;10122;50.074;19.920;2023-07-29T00:06:45;18.70;99.90
19920;DHT22;10122;50.074;19.920;2023-07-29T00:09:11;18.60;99.90
19920;DHT22;10122;50.074;19.920;2023-07-29T00:11:38;18.60;99.90
19920;DHT22;10122;50.074;19.920;2023-07-29T00:14:03;18.60;99.90
19920;DHT22;10122;50.074;19.920;2023-07-29T00:16:29;18.50;99.90
19920;DHT22;10122;50.074;19.920;2023-07-29T00:18:55;18.50;99.90
19920;DHT22;10122;50.074;19.920;2023-07-29T00:21:21;18.50;99.90
19920;DHT22;10122;50.074;19.920;2023-07-29T00:23:46;18.50;99.90
19920;DHT22;10122;50.074;19.920;2023-07-29T00:26:12;18.40;99.90
19920;DHT22;10122;50.074;19.920;2023-07-29T00:28:38;18.40;99.90
19920;DHT22;10122;50.074;19.920;2023-07-29T00:31:03;18.40;99.90
19920;DHT22;10122;50.074;19.920;2023-07-29T00:33:29;18.40;99.90
19920;DHT22;10122;50.074;19.920;2023-07-29T00:35:55;18.40;99.90
19920;DHT22;10122;50.074;19.920;2023-07-29T00:38:20;18.40;99.90
19920;DHT22;10122;50.074;19.920;2023-07-29T00:40:46;18.40;99.90
19920;DHT22;10122;50.074;19.920;2023-07-29T00:43:12;18.40;99.90
19920;DHT22;10122;50.074;19.920;2023-07-29T00:45:38;18.30;99.90
19920;DHT22;10122;50.074;19.920;2023-07-29T00:48:04;18.30;99.90
19920;DHT22;10122;50.074;19.920;2023-07-29T00:50:31;18.30;99.90
19920;DHT22;10122;50.074;19.920;2023-07-29T00:52:58;18.30;99.90
19920;DHT22;10122;50.074;19.920;2023-07-29T00:55:24;18.30;99.90
19920;DHT22;10122;50.074;19.920;2023-07-29T00:57:51;18.20;99.90
19920;DHT22;10122;50.074;19.920;2023-07-29T01:00:20;18.20;99.90
19920;DHT22;10122;50.074;19.920;2023-07-29T01:02:46;18.20;99.90
19920;DHT22;10122;50.074;19.920;2023-07-29T01:05:13;18.20;99.90
19920;DHT22;10122;50.074;19.920;2023-07-29T01:13:10;18.20;99.90
19920;DHT22;10122;50.074;19.920;2023-07-29T01:15:55;18.10;99.90
19920;DHT22;10122;50.074;19.920;2023-07-29T01:18:26;18.10;99.90
19920;DHT22;10122;50.074;19.920;2023-07-29T01:20:54;18.10;99.90
19920;DHT22;10122;50.074;19.920;2023-07-29T01:23:34;18.10;99.90
19920;DHT22;10122;50.074;19.920;2023-07-29T01:26:00;18.10;99.90
19920;DHT22;10122;50.074;19.920;2023-07-29T01:28:27;18.00;99.90
19920;DHT22;10122;50.074;19.920;2023-07-29T01:31:01;18.00;99.90
19920;DHT22;10122;50.074;19.920;2023-07-29T01:33:32;17.90;99.90
19920;DHT22;10122;50.074;19.920;2023-07-29T01:36:13;17.90;99.90
19920;DHT22;10122;50.074;19.920;2023-07-29T01:38:42;17.90;99.90
19920;DHT22;10122;50.074;19.920;2023-07-29T01:41:09;18.00;99.90
19920;DHT22;10122;50.074;19.920;2023-07-29T01:43:36;17.90;99.90
19920;DHT22;10122;50.074;19.920;2023-07-29T01:46:12;17.90;99.90
19920;DHT22;10122;50.074;19.920;2023-07-29T01:48:37;17.90;99.90
19920;DHT22;10122;50.074;19.920;2023-07-29T01:51:03;17.90;99.90
19920;DHT22;10122;50.074;19.920;2023-07-29T01:53:30;17.80;99.90
19920;DHT22;10122;50.074;19.920;2023-07-29T01:55:55;17.80;99.90
19920;DHT22;10122;50.074;19.920;2023-07-29T01:58:22;17.70;99.90
19920;DHT22;10122;50.074;19.920;2023-07-29T02:00:48;17.70;99.90
19920;DHT22;10122;50.074;19.920;2023-07-29T02:03:13;17.70;99.90
19920;DHT22;10122;50.074;19.920;2023-07-29T02:05:39;17.70;99.90
19920;DHT22;10122;50.074;19.920;2023-07-29T02:08:05;17.70;99.90
19920;DHT22;10122;50.074;19.920;2023-07-29T02:10:31;17.80;99.90
19920;DHT22;10122;50.074;19.920;2023-07-29T02:12:57;17.80;99.90
19920;DHT22;10122;50.074;19.920;2023-07-29T02:15:23;17.80;99.90
19920;DHT22;10122;50.074;19.920;2023-07-29T02:17:50;17.80;99.90
19920;DHT22;10122;50.074;19.920;2023-07-29T02:20:16;17.80;99.90
19920;DHT22;10122;50.074;19.920;2023-07-29T02:22:42;17.80;99.90
19920;DHT22;10122;50.074;19.920;2023-07-29T02:25:08;17.80;99.90
19920;DHT22;10122;50.074;19.920;2023-07-29T02:27:33;17.80;99.90
19920;DHT22;10122;50.074;19.920;2023-07-29T02:29:59;17.80;99.90
19920;DHT22;10122;50.074;19.920;2023-07-29T02:32:25;17.90;99.90
19920;DHT22;10122;50.074;19.920;2023-07-29T02:34:50;17.90;99.90
19920;DHT22;10122;50.074;19.920;2023-07-29T02:37:16;17.90;99.90
19920;DHT22;10122;50.074;19.920;2023-07-29T02:39:42;17.90;99.90
19920;DHT22;10122;50.074;19.920;2023-07-29T02:42:08;18.00;99.90
19920;DHT22;10122;50.074;19.920;2023-07-29T02:44:33;18.00;99.90
19920;DHT22;10122;50.074;19.920;2023-07-29T02:46:59;18.00;99.90
19920;DHT22;10122;50.074;19.920;2023-07-29T02:49:25;18.00;99.90
19920;DHT22;10122;50.074;19.920;2023-07-29T02:51:51;18.00;99.90
19920;DHT22;10122;50.074;19.920;2023-07-29T02:54:16;18.10;99.90
19920;DHT22;10122;50.074;19.920;2023-07-29T02:56:42;18.00;99.90
19920;DHT22;10122;50.074;19.920;2023-07-29T02:59:08;18.00;99.90
19920;DHT22;10122;50.074;19.920;2023-07-29T03:01:33;18.00;99.90
19920;DHT22;10122;50.074;19.920;2023-07-29T03:03:59;18.10;99.90
19920;DHT22;10122;50.074;19.920;2023-07-29T03:06:25;18.10;99.90
19920;DHT22;10122;50.074;19.920;2023-07-29T03:08:51;18.00;99.90
19920;DHT22;10122;50.074;19.920;2023-07-29T03:11:16;18.00;99.90
19920;DHT22;10122;50.074;19.920;2023-07-29T03:13:43;18.10;99.90
19920;DHT22;10122;50.074;19.920;2023-07-29T03:18:36;18.10;99.90
19920;DHT22;10122;50.074;19.920;2023-07-29T03:21:02;18.10;99.90
19920;DHT22;10122;50.074;19.920;2023-07-29T03:23:29;18.10;99.90
19920;DHT22;10122;50.074;19.920;2023-07-29T03:25:55;18.20;99.90
19920;DHT22;10122;50.074;19.920;2023-07-29T03:28:25;18.30;99.90
19920;DHT22;10122;50.074;19.920;2023-07-29T03:30:50;18.30;99.90
19920;DHT22;10122;50.074;19.920;2023-07-29T03:33:16;18.40;99.90
19920;DHT22;10122;50.074;19.920;2023-07-29T03:35:42;18.50;99.90
19920;DHT22;10122;50.074;19.920;2023-07-29T03:38:10;18.50;99.90
19920;DHT22;10122;50.074;19.920;2023-07-29T03:40:37;18.40;99.90
19920;DHT22;10122;50.074;19.920;2023-07-29T03:43:04;18.40;99.90
19920;DHT22;10122;50.074;19.920;2023-07-29T03:45:30;18.40;99.90
19920;DHT22;10122;50.074;19.920;2023-07-29T03:47:55;18.40;99.90
19920;DHT22;10122;50.074;19.920;2023-07-29T03:50:21;18.40;99.90
19920;DHT22;10122;50.074;19.920;2023-07-29T03:52:47;18.30;99.90
19920;DHT22;10122;50.074;19.920;2023-07-29T03:55:13;18.40;99.90
19920;DHT22;10122;50.074;19.920;2023-07-29T03:57:38;18.40;99.90
19920;DHT22;10122;50.074;19.920;2023-07-29T04:00:05;18.40;99.90
19920;DHT22;10122;50.074;19.920;2023-07-29T04:02:31;18.40;99.90
19920;DHT22;10122;50.074;19.920;2023-07-29T04:04:57;18.40;99.90
19920;DHT22;10122;50.074;19.920;2023-07-29T04:07:23;18.40;99.90
19920;DHT22;10122;50.074;19.920;2023-07-29T04:09:48;18.40;99.90
19920;DHT22;10122;50.074;19.920;2023-07-29T04:12:15;18.50;99.90
19920;DHT22;10122;50.074;19.920;2023-07-29T04:14:41;18.50;99.90
19920;DHT22;10122;50.074;19.920;2023-07-29T04:17:07;18.50;99.90
19920;DHT22;10122;50.074;19.920;2023-07-29T04:19:33;18.50;99.90
19920;DHT22;10122;50.074;19.920;2023-07-29T04:21:59;18.50;99.90
19920;DHT22;10122;50.074;19.920;2023-07-29T04:24:25;18.50;99.90
19920;DHT22;10122;50.074;19.920;2023-07-29T04:26:50;18.60;99.90
19920;DHT22;10122;50.074;19.920;2023-07-29T04:29:16;18.60;99.90
19920;DHT22;10122;50.074;19.920;2023-07-29T04:31:42;18.70;99.90
19920;DHT22;10122;50.074;19.920;2023-07-29T04:34:08;18.70;99.90
19920;DHT22;10122;50.074;19.920;2023-07-29T04:36:34;18.80;99.90
19920;DHT22;10122;50.074;19.920;2023-07-29T04:39:00;18.80;99.90
19920;DHT22;10122;50.074;19.920;2023-07-29T04:41:26;18.80;99.90
19920;DHT22;10122;50.074;19.920;2023-07-29T04:43:51;18.80;99.90
19920;DHT22;10122;50.074;19.920;2023-07-29T04:46:18;18.90;99.90
19920;DHT22;10122;50.074;19.920;2023-07-29T04:48:43;18.90;99.90
19920;DHT22;10122;50.074;19.920;2023-07-29T04:51:09;19.00;99.90
19920;DHT22;10122;50.074;19.920;2023-07-29T04:53:35;19.00;99.90
19920;DHT22;10122;50.074;19.920;2023-07-29T04:56:02;19.00;99.90
19920;DHT22;10122;50.074;19.920;2023-07-29T04:58:28;19.00;99.90
19920;DHT22;10122;50.074;19.920;2023-07-29T05:00:55;19.10;99.90
19920;DHT22;10122;50.074;19.920;2023-07-29T05:03:21;19.20;99.90
19920;DHT22;10122;50.074;19.920;2023-07-29T05:05:47;19.30;99.90
19920;DHT22;10122;50.074;19.920;2023-07-29T05:08:12;19.40;99.90
19920;DHT22;10122;50.074;19.920;2023-07-29T05:10:38;19.50;99.90
19920;DHT22;10122;50.074;19.920;2023-07-29T05:13:04;19.60;99.90
19920;DHT22;10122;50.074;19.920;2023-07-29T05:15:30;19.70;99.90
19920;DHT22;10122;50.074;19.920;2023-07-29T05:17:56;19.80;99.90
19920;DHT22;10122;50.074;19.920;2023-07-29T05:20:21;19.80;99.90
19920;DHT22;10122;50.074;19.920;2023-07-29T05:22:47;20.00;99.90
19920;DHT22;10122;50.074;19.920;2023-07-29T05:25:13;20.00;99.90
19920;DHT22;10122;50.074;19.920;2023-07-29T05:27:38;20.10;99.90
19920;DHT22;10122;50.074;19.920;2023-07-29T05:30:05;20.20;99.90
19920;DHT22;10122;50.074;19.920;2023-07-29T05:32:32;20.20;99.90
19920;DHT22;10122;50.074;19.920;2023-07-29T05:34:57;20.30;99.90
19920;DHT22;10122;50.074;19.920;2023-07-29T05:37:23;20.30;99.90
19920;DHT22;10122;50.074;19.920;2023-07-29T05:39:49;20.40;99.90
19920;DHT22;10122;50.074;19.920;2023-07-29T05:42:14;20.40;99.90
19920;DHT22;10122;50.074;19.920;2023-07-29T05:44:40;20.40;99.90
19920;DHT22;10122;50.074;19.920;2023-07-29T05:47:06;20.50;99.90
19920;DHT22;10122;50.074;19.920;2023-07-29T05:49:31;20.50;99.90
19920;DHT22;10122;50.074;19.920;2023-07-29T05:51:57;20.60;99.90
19920;DHT22;10122;50.074;19.920;2023-07-29T05:54:23;20.70;99.90
19920;DHT22;10122;50.074;19.920;2023-07-29T05:56:49;20.70;99.90
19920;DHT22;10122;50.074;19.920;2023-07-29T05:59:14;20.80;99.90
19920;DHT22;10122;50.074;19.920;2023-07-29T06:01:40;20.80;99.90
19920;DHT22;10122;50.074;19.920;2023-07-29T06:04:06;20.90;99.90
19920;DHT22;10122;50.074;19.920;2023-07-29T06:06:32;20.90;99.90
19920;DHT22;10122;50.074;19.920;2023-07-29T06:08:57;20.90;99.90
19920;DHT22;10122;50.074;19.920;2023-07-29T06:11:23;21.00;99.90
19920;DHT22;10122;50.074;19.920;2023-07-29T06:13:49;21.10;99.90
19920;DHT22;10122;50.074;19.920;2023-07-29T06:16:15;21.30;99.90
19920;DHT22;10122;50.074;19.920;2023-07-29T06:18:40;21.50;99.90
19920;DHT22;10122;50.074;19.920;2023-07-29T06:21:06;22.00;99.90
19920;DHT22;10122;50.074;19.920;2023-07-29T06:23:33;22.60;99.90
19920;DHT22;10122;50.074;19.920;2023-07-29T06:25:59;23.30;99.90
19920;DHT22;10122;50.074;19.920;2023-07-29T06:28:26;24.00;99.90
19920;DHT22;10122;50.074;19.920;2023-07-29T06:30:52;24.60;99.90
19920;DHT22;10122;50.074;19.920;2023-07-29T06:33:18;25.30;99.90
19920;DHT22;10122;50.074;19.920;2023-07-29T06:35:43;25.90;99.90
19920;DHT22;10122;50.074;19.920;2023-07-29T06:38:09;26.60;99.90
19920;DHT22;10122;50.074;19.920;2023-07-29T06:40:35;26.80;99.90
19920;DHT22;10122;50.074;19.920;2023-07-29T06:43:00;26.80;99.90
19920;DHT22;10122;50.074;19.920;2023-07-29T06:45:26;27.20;99.90
19920;DHT22;10122;50.074;19.920;2023-07-29T06:47:52;27.60;99.90
19920;DHT22;10122;50.074;19.920;2023-07-29T06:50:18;28.00;99.90
19920;DHT22;10122;50.074;19.920;2023-07-29T06:52:44;28.40;99.90
19920;DHT22;10122;50.074;19.920;2023-07-29T06:55:10;28.60;99.90
19920;DHT22;10122;50.074;19.920;2023-07-29T06:57:35;28.80;99.90
19920;DHT22;10122;50.074;19.920;2023-07-29T07:00:02;29.10;99.90
19920;DHT22;10122;50.074;19.920;2023-07-29T07:02:28;29.40;99.90
19920;DHT22;10122;50.074;19.920;2023-07-29T07:04:54;29.50;99.90
19920;DHT22;10122;50.074;19.920;2023-07-29T07:07:20;29.80;99.90
19920;DHT22;10122;50.074;19.920;2023-07-29T07:09:46;30.30;99.90
19920;DHT22;10122;50.074;19.920;2023-07-29T07:12:11;30.70;99.90
19920;DHT22;10122;50.074;19.920;2023-07-29T07:14:37;31.00;99.90
19920;DHT22;10122;50.074;19.920;2023-07-29T07:17:03;31.40;99.90
19920;DHT22;10122;50.074;19.920;2023-07-29T07:19:29;31.80;99.90
19920;DHT22;10122;50.074;19.920;2023-07-29T07:21:55;32.10;99.90
19920;DHT22;10122;50.074;19.920;2023-07-29T07:24:20;31.80;99.90
19920;DHT22;10122;50.074;19.920;2023-07-29T07:26:46;31.80;99.90
19920;DHT22;10122;50.074;19.920;2023-07-29T07:29:12;32.00;99.90
19920;DHT22;10122;50.074;19.920;2023-07-29T07:31:37;32.10;98.50
19920;DHT22;10122;50.074;19.920;2023-07-29T07:34:03;32.20;97.60
19920;DHT22;10122;50.074;19.920;2023-07-29T07:36:29;32.30;97.80
19920;DHT22;10122;50.074;19.920;2023-07-29T07:38:56;32.60;96.70
19920;DHT22;10122;50.074;19.920;2023-07-29T07:41:21;32.80;96.10
19920;DHT22;10122;50.074;19.920;2023-07-29T07:43:47;33.20;95.40
19920;DHT22;10122;50.074;19.920;2023-07-29T07:46:13;33.50;93.70
19920;DHT22;10122;50.074;19.920;2023-07-29T07:48:38;33.40;92.60
19920;DHT22;10122;50.074;19.920;2023-07-29T07:51:14;33.50;92.80
19920;DHT22;10122;50.074;19.920;2023-07-29T07:53:40;34.10;91.40
19920;DHT22;10122;50.074;19.920;2023-07-29T07:56:06;34.30;90.50
19920;DHT22;10122;50.074;19.920;2023-07-29T07:58:32;33.80;90.00
19920;DHT22;10122;50.074;19.920;2023-07-29T08:01:05;33.00;90.50
19920;DHT22;10122;50.074;19.920;2023-07-29T08:03:31;32.80;90.80
19920;DHT22;10122;50.074;19.920;2023-07-29T08:05:57;33.10;90.60
19920;DHT22;10122;50.074;19.920;2023-07-29T08:08:23;33.60;89.70
19920;DHT22;10122;50.074;19.920;2023-07-29T08:10:49;34.00;88.20
19920;DHT22;10122;50.074;19.920;2023-07-29T08:13:15;34.50;86.10
19920;DHT22;10122;50.074;19.920;2023-07-29T08:15:41;35.10;85.80
19920;DHT22;10122;50.074;19.920;2023-07-29T08:18:07;35.40;82.90
19920;DHT22;10122;50.074;19.920;2023-07-29T08:20:32;35.10;82.70
19920;DHT22;10122;50.074;19.920;2023-07-29T08:22:58;35.10;81.70
19920;DHT22;10122;50.074;19.920;2023-07-29T08:25:24;34.80;81.60
19920;DHT22;10122;50.074;19.920;2023-07-29T08:27:49;34.90;81.10
19920;DHT22;10122;50.074;19.920;2023-07-29T08:30:24;35.10;79.40
19920;DHT22;10122;50.074;19.920;2023-07-29T08:32:50;35.40;79.40
19920;DHT22;10122;50.074;19.920;2023-07-29T08:35:16;35.80;78.00
19920;DHT22;10122;50.074;19.920;2023-07-29T08:37:41;35.60;76.60
19920;DHT22;10122;50.074;19.920;2023-07-29T08:40:07;34.90;77.50
19920;DHT22;10122;50.074;19.920;2023-07-29T08:42:33;34.70;77.10
19920;DHT22;10122;50.074;19.920;2023-07-29T08:45:06;34.40;77.90
19920;DHT22;10122;50.074;19.920;2023-07-29T08:47:33;34.20;78.30
19920;DHT22;10122;50.074;19.920;2023-07-29T08:50:00;34.00;79.40
19920;DHT22;10122;50.074;19.920;2023-07-29T08:52:27;33.30;81.30
19920;DHT22;10122;50.074;19.920;2023-07-29T08:54:53;32.90;82.70
19920;DHT22;10122;50.074;19.920;2023-07-29T08:57:20;32.40;83.70
19920;DHT22;10122;50.074;19.920;2023-07-29T08:59:46;32.10;84.90
19920;DHT22;10122;50.074;19.920;2023-07-29T09:02:12;32.10;85.00
19920;DHT22;10122;50.074;19.920;2023-07-29T09:04:37;32.30;84.80
19920;DHT22;10122;50.074;19.920;2023-07-29T09:07:05;32.30;84.40
19920;DHT22;10122;50.074;19.920;2023-07-29T09:09:30;32.10;85.20
19920;DHT22;10122;50.074;19.920;2023-07-29T09:11:56;32.00;85.70
19920;DHT22;10122;50.074;19.920;2023-07-29T09:14:24;32.10;85.60
19920;DHT22;10122;50.074;19.920;2023-07-29T09:16:49;32.00;85.60
19920;DHT22;10122;50.074;19.920;2023-07-29T09:19:16;31.80;86.80
19920;DHT22;10122;50.074;19.920;2023-07-29T09:21:42;31.70;87.70
19920;DHT22;10122;50.074;19.920;2023-07-29T09:24:08;31.50;88.00
19920;DHT22;10122;50.074;19.920;2023-07-29T09:26:34;31.30;87.60
19920;DHT22;10122;50.074;19.920;2023-07-29T09:29:00;31.20;88.30
19920;DHT22;10122;50.074;19.920;2023-07-29T09:31:27;31.20;88.50
19920;DHT22;10122;50.074;19.920;2023-07-29T09:34:01;31.20;88.50
19920;DHT22;10122;50.074;19.920;2023-07-29T09:36:30;31.00;89.30
19920;DHT22;10122;50.074;19.920;2023-07-29T09:38:57;31.30;90.00
19920;DHT22;10122;50.074;19.920;2023-07-29T09:41:27;31.40;88.10
19920;DHT22;10122;50.074;19.920;2023-07-29T09:44:02;31.30;86.40
19920;DHT22;10122;50.074;19.920;2023-07-29T09:46:36;31.30;86.40
19920;DHT22;10122;50.074;19.920;2023-07-29T09:49:03;31.30;86.80
19920;DHT22;10122;50.074;19.920;2023-07-29T09:51:30;31.40;87.70
19920;DHT22;10122;50.074;19.920;2023-07-29T09:53:56;31.60;87.00
19920;DHT22;10122;50.074;19.920;2023-07-29T09:56:25;31.80;86.40
19920;DHT22;10122;50.074;19.920;2023-07-29T09:58:52;31.90;86.20
19920;DHT22;10122;50.074;19.920;2023-07-29T10:01:18;32.00;85.20
19920;DHT22;10122;50.074;19.920;2023-07-29T10:03:44;32.00;86.80
19920;DHT22;10122;50.074;19.920;2023-07-29T10:06:11;31.90;86.50
19920;DHT22;10122;50.074;19.920;2023-07-29T10:08:39;31.60;86.30
19920;DHT22;10122;50.074;19.920;2023-07-29T10:11:06;31.20;86.20
19920;DHT22;10122;50.074;19.920;2023-07-29T10:13:33;31.00;86.50
19920;DHT22;10122;50.074;19.920;2023-07-29T10:15:59;30.70;86.90
19920;DHT22;10122;50.074;19.920;2023-07-29T10:18:28;30.50;87.30
19920;DHT22;10122;50.074;19.920;2023-07-29T10:20:54;30.30;87.80
19920;DHT22;10122;50.074;19.920;2023-07-29T10:23:22;30.30;89.10
19920;DHT22;10122;50.074;19.920;2023-07-29T10:28:25;29.80;89.70
19920;DHT22;10122;50.074;19.920;2023-07-29T10:30:52;29.60;90.40
19920;DHT22;10122;50.074;19.920;2023-07-29T10:33:18;29.60;90.40
19920;DHT22;10122;50.074;19.920;2023-07-29T10:35:43;29.50;90.30
19920;DHT22;10122;50.074;19.920;2023-07-29T10:38:09;29.20;90.70
19920;DHT22;10122;50.074;19.920;2023-07-29T10:40:53;29.00;91.30
19920;DHT22;10122;50.074;19.920;2023-07-29T10:43:34;29.00;91.40
19920;DHT22;10122;50.074;19.920;2023-07-29T10:46:16;28.90;91.70
19920;DHT22;10122;50.074;19.920;2023-07-29T10:48:51;28.80;91.90
19920;DHT22;10122;50.074;19.920;2023-07-29T10:51:44;28.60;92.30
19920;DHT22;10122;50.074;19.920;2023-07-29T10:54:13;28.50;92.90
19920;DHT22;10122;50.074;19.920;2023-07-29T10:56:47;28.40;93.40
19920;DHT22;10122;50.074;19.920;2023-07-29T11:01:39;28.40;94.70
19920;DHT22;10122;50.074;19.920;2023-07-29T11:15:11;28.20;97.60
19920;DHT22;10122;50.074;19.920;2023-07-29T11:17:41;28.20;97.20
19920;DHT22;10122;50.074;19.920;2023-07-29T11:20:08;28.30;97.30
19920;DHT22;10122;50.074;19.920;2023-07-29T11:22:34;28.20;97.30
19920;DHT22;10122;50.074;19.920;2023-07-29T11:25:00;28.30;97.60
19920;DHT22;10122;50.074;19.920;2023-07-29T11:27:26;28.40;98.00
19920;DHT22;10122;50.074;19.920;2023-07-29T11:30:03;28.40;97.90
19920;DHT22;10122;50.074;19.920;2023-07-29T11:32:34;28.30;97.50
19920;DHT22;10122;50.074;19.920;2023-07-29T11:35:08;28.30;98.00
19920;DHT22;10122;50.074;19.920;2023-07-29T11:37:35;28.30;98.50
19920;DHT22;10122;50.074;19.920;2023-07-29T11:40:02;28.30;99.10
19920;DHT22;10122;50.074;19.920;2023-07-29T11:42:28;28.40;99.90
19920;DHT22;10122;50.074;19.920;2023-07-29T11:44:57;28.30;99.90
19920;DHT22;10122;50.074;19.920;2023-07-29T11:47:23;28.20;99.90
19920;DHT22;10122;50.074;19.920;2023-07-29T11:49:49;28.10;99.90
19920;DHT22;10122;50.074;19.920;2023-07-29T11:52:15;28.10;99.90
19920;DHT22;10122;50.074;19.920;2023-07-29T11:54:48;28.10;99.90
19920;DHT22;10122;50.074;19.920;2023-07-29T11:57:16;28.00;99.90
19920;DHT22;10122;50.074;19.920;2023-07-29T11:59:43;28.00;99.90
19920;DHT22;10122;50.074;19.920;2023-07-29T12:02:17;27.90;99.90
19920;DHT22;10122;50.074;19.920;2023-07-29T12:04:44;27.90;99.90
19920;DHT22;10122;50.074;19.920;2023-07-29T12:07:13;27.80;99.90
19920;DHT22;10122;50.074;19.920;2023-07-29T12:09:39;27.70;99.90
19920;DHT22;10122;50.074;19.920;2023-07-29T12:12:06;27.60;99.90
19920;DHT22;10122;50.074;19.920;2023-07-29T12:14:33;27.60;99.90
19920;DHT22;10122;50.074;19.920;2023-07-29T12:17:03;27.50;99.90
19920;DHT22;10122;50.074;19.920;2023-07-29T12:19:37;27.40;99.90
19920;DHT22;10122;50.074;19.920;2023-07-29T12:22:04;27.40;99.90
19920;DHT22;10122;50.074;19.920;2023-07-29T12:24:31;27.50;99.90
19920;DHT22;10122;50.074;19.920;2023-07-29T12:26:57;27.60;99.90
19920;DHT22;10122;50.074;19.920;2023-07-29T12:29:23;27.70;99.90
19920;DHT22;10122;50.074;19.920;2023-07-29T12:32:00;27.80;99.90
19920;DHT22;10122;50.074;19.920;2023-07-29T12:34:30;27.90;99.90
19920;DHT22;10122;50.074;19.920;2023-07-29T12:36:58;28.00;99.90
19920;DHT22;10122;50.074;19.920;2023-07-29T12:39:25;27.90;99.90
19920;DHT22;10122;50.074;19.920;2023-07-29T12:41:54;27.80;99.90
19920;DHT22;10122;50.074;19.920;2023-07-29T12:44:20;27.80;99.90
19920;DHT22;10122;50.074;19.920;2023-07-29T12:46:47;27.90;99.90
19920;DHT22;10122;50.074;19.920;2023-07-29T12:49:13;27.90;99.90
19920;DHT22;10122;50.074;19.920;2023-07-29T12:51:39;27.90;99.90
19920;DHT22;10122;50.074;19.920;2023-07-29T12:54:05;27.90;99.90
19920;DHT22;10122;50.074;19.920;2023-07-29T12:56:31;27.90;99.90
19920;DHT22;10122;50.074;19.920;2023-07-29T12:58:58;27.80;99.90
19920;DHT22;10122;50.074;19.920;2023-07-29T13:01:24;27.70;99.90
19920;DHT22;10122;50.074;19.920;2023-07-29T13:03:50;27.70;99.90
19920;DHT22;10122;50.074;19.920;2023-07-29T13:06:16;27.70;99.90
19920;DHT22;10122;50.074;19.920;2023-07-29T13:08:43;27.80;99.90
19920;DHT22;10122;50.074;19.920;2023-07-29T13:11:09;27.90;99.90
19920;DHT22;10122;50.074;19.920;2023-07-29T13:13:35;28.00;99.90
19920;DHT22;10122;50.074;19.920;2023-07-29T13:16:01;28.00;99.90
19920;DHT22;10122;50.074;19.920;2023-07-29T13:18:27;28.00;99.90
19920;DHT22;10122;50.074;19.920;2023-07-29T13:20:53;28.00;99.90
19920;DHT22;10122;50.074;19.920;2023-07-29T13:23:19;28.00;99.90
19920;DHT22;10122;50.074;19.920;2023-07-29T13:25:45;28.00;99.90
19920;DHT22;10122;50.074;19.920;2023-07-29T13:28:12;28.10;99.90
19920;DHT22;10122;50.074;19.920;2023-07-29T13:30:40;28.10;99.90
19920;DHT22;10122;50.074;19.920;2023-07-29T13:33:09;28.10;99.90
19920;DHT22;10122;50.074;19.920;2023-07-29T13:35:35;28.20;99.90
19920;DHT22;10122;50.074;19.920;2023-07-29T13:38:01;28.20;99.90
19920;DHT22;10122;50.074;19.920;2023-07-29T13:40:26;28.20;99.90
19920;DHT22;10122;50.074;19.920;2023-07-29T13:42:53;28.20;99.90
19920;DHT22;10122;50.074;19.920;2023-07-29T13:45:19;28.10;99.90
19920;DHT22;10122;50.074;19.920;2023-07-29T13:47:45;28.10;99.90
19920;DHT22;10122;50.074;19.920;2023-07-29T13:50:10;28.10;99.90
19920;DHT22;10122;50.074;19.920;2023-07-29T13:52:37;28.00;99.90
19920;DHT22;10122;50.074;19.920;2023-07-29T13:55:06;28.00;99.90
19920;DHT22;10122;50.074;19.920;2023-07-29T13:57:32;28.00;99.90
19920;DHT22;10122;50.074;19.920;2023-07-29T13:59:58;27.90;99.90
19920;DHT22;10122;50.074;19.920;2023-07-29T14:02:24;27.90;99.90
19920;DHT22;10122;50.074;19.920;2023-07-29T14:04:54;27.90;99.90
19920;DHT22;10122;50.074;19.920;2023-07-29T14:07:25;27.90;99.90
19920;DHT22;10122;50.074;19.920;2023-07-29T14:09:51;27.80;99.90
19920;DHT22;10122;50.074;19.920;2023-07-29T14:12:17;27.80;99.90
19920;DHT22;10122;50.074;19.920;2023-07-29T14:14:42;27.70;99.90
19920;DHT22;10122;50.074;19.920;2023-07-29T14:17:08;27.70;99.90
19920;DHT22;10122;50.074;19.920;2023-07-29T14:19:35;27.70;99.90
19920;DHT22;10122;50.074;19.920;2023-07-29T14:22:01;27.70;99.90
19920;DHT22;10122;50.074;19.920;2023-07-29T14:24:27;27.70;99.90
19920;DHT22;10122;50.074;19.920;2023-07-29T14:26:52;27.70;99.90
19920;DHT22;10122;50.074;19.920;2023-07-29T14:29:18;27.50;99.90
19920;DHT22;10122;50.074;19.920;2023-07-29T14:31:44;27.30;99.90
19920;DHT22;10122;50.074;19.920;2023-07-29T14:34:09;26.90;99.90
19920;DHT22;10122;50.074;19.920;2023-07-29T14:36:36;26.70;99.90
19920;DHT22;10122;50.074;19.920;2023-07-29T14:39:01;26.50;99.90
19920;DHT22;10122;50.074;19.920;2023-07-29T14:41:27;26.30;99.90
19920;DHT22;10122;50.074;19.920;2023-07-29T14:43:53;26.20;99.90
19920;DHT22;10122;50.074;19.920;2023-07-29T14:46:18;26.20;99.90
19920;DHT22;10122;50.074;19.920;2023-07-29T14:48:44;26.20;99.90
19920;DHT22;10122;50.074;19.920;2023-07-29T14:51:12;26.10;99.90
19920;DHT22;10122;50.074;19.920;2023-07-29T14:53:38;26.10;99.90
19920;DHT22;10122;50.074;19.920;2023-07-29T14:56:04;26.10;99.90
19920;DHT22;10122;50.074;19.920;2023-07-29T14:58:30;26.20;99.90
19920;DHT22;10122;50.074;19.920;2023-07-29T15:00:55;26.30;99.90
19920;DHT22;10122;50.074;19.920;2023-07-29T15:03:21;26.40;99.90
19920;DHT22;10122;50.074;19.920;2023-07-29T15:05:47;26.50;99.90
19920;DHT22;10122;50.074;19.920;2023-07-29T15:08:13;26.50;99.90
19920;DHT22;10122;50.074;19.920;2023-07-29T15:10:38;26.50;99.90
19920;DHT22;10122;50.074;19.920;2023-07-29T15:13:04;26.50;99.90
19920;DHT22;10122;50.074;19.920;2023-07-29T15:15:30;26.50;99.90
19920;DHT22;10122;50.074;19.920;2023-07-29T15:17:55;26.60;99.90
19920;DHT22;10122;50.074;19.920;2023-07-29T15:20:22;26.40;99.90
19920;DHT22;10122;50.074;19.920;2023-07-29T15:22:48;26.40;99.90
19920;DHT22;10122;50.074;19.920;2023-07-29T15:25:13;26.30;99.90
19920;DHT22;10122;50.074;19.920;2023-07-29T15:27:39;26.30;99.90
19920;DHT22;10122;50.074;19.920;2023-07-29T15:30:06;26.20;99.90
19920;DHT22;10122;50.074;19.920;2023-07-29T15:32:32;26.20;99.90
19920;DHT22;10122;50.074;19.920;2023-07-29T15:34:58;26.20;99.90
19920;DHT22;10122;50.074;19.920;2023-07-29T15:37:26;26.20;99.90